Time;durP1;ratioP1;P1;durP2;ratioP2;P2;SDS_P1;SDS_P2;PMS_P1;PMS_P2;Temp;Humidity;BMP_temperature;BMP_pressure;BME280_temperature;BME280_humidity;BME280_pressure;Samples;Min_cycle;Max_cycle;Signal;HPM_P1;HPM_P2
2022/01/22 00:01:58;;;;;;;5.13;2.50;;;;;;;-0.15;71.11;98192.00;5071396;28;20200;-74
2022/01/22 00:04:24;;;;;;;6.50;3.07;;;;;;;-0.24;71.61;98189.63;5075092;28;20207;-75
2022/01/22 00:06:54;;;;;;;3.07;2.77;;;;;;;-0.28;71.59;98182.78;5070224;28;20214;-75
2022/01/22 00:09:25;;;;;;;2.70;2.50;;;;;;;-0.26;71.84;98186.22;5058583;28;20296;-75
2022/01/22 00:11:53;;;;;;;5.53;2.80;;;;;;;-0.31;72.29;98176.81;5066211;28;20195;-69
2022/01/22 00:14:26;;;;;;;3.97;3.03;;;;;;;-0.35;72.36;98175.19;5085131;28;20217;-69
2022/01/22 00:16:55;;;;;;;4.70;2.90;;;;;;;-0.32;72.48;98175.94;5077680;28;20211;-70
2022/01/22 00:19:22;;;;;;;4.03;2.77;;;;;;;-0.40;72.57;98171.84;5077252;28;20214;-69
2022/01/22 00:21:49;;;;;;;2.60;2.40;;;;;;;-0.41;72.51;98173.59;5077332;28;20212;-70
2022/01/22 00:24:15;;;;;;;3.63;2.60;;;;;;;-0.39;73.36;98166.59;5077482;28;20218;-68
2022/01/22 00:26:43;;;;;;;6.37;3.10;;;;;;;-0.38;72.52;98168.31;5077595;28;20218;-67
2022/01/22 00:29:10;;;;;;;4.17;2.20;;;;;;;-0.45;72.88;98161.56;5077882;28;20208;-70
2022/01/22 00:31:37;;;;;;;3.73;2.70;;;;;;;-0.43;72.75;98159.81;5077024;28;20216;-69
2022/01/22 00:34:04;;;;;;;3.20;2.90;;;;;;;-0.50;72.80;98155.66;5077313;28;20204;-70
2022/01/22 00:36:31;;;;;;;3.83;2.77;;;;;;;-0.44;73.01;98162.44;5066279;28;20262;-70
2022/01/22 00:38:57;;;;;;;2.80;2.50;;;;;;;-0.58;74.92;98157.59;5057668;28;20212;-69
2022/01/22 00:41:24;;;;;;;3.50;3.00;;;;;;;-0.66;74.21;98155.19;5075251;28;20211;-68
2022/01/22 00:43:50;;;;;;;3.43;2.60;;;;;;;-0.61;73.95;98152.47;5077624;28;20229;-68
2022/01/22 00:46:17;;;;;;;4.53;2.77;;;;;;;-0.59;73.28;98155.88;5070299;28;20629;-68
2022/01/22 00:48:44;;;;;;;3.47;2.50;;;;;;;-0.61;73.53;98152.47;5057463;28;20203;-69
2022/01/22 00:51:12;;;;;;;2.93;2.73;;;;;;;-0.60;73.54;98146.38;5075021;28;20214;-70
2022/01/22 00:53:39;;;;;;;4.23;2.80;;;;;;;-0.59;74.13;98146.34;5072165;28;20200;-69
2022/01/22 00:56:05;;;;;;;5.50;2.90;;;;;;;-0.65;73.51;98145.66;5075479;28;20241;-68
2022/01/22 00:58:32;;;;;;;2.90;2.63;;;;;;;-0.57;73.08;98148.91;5065045;28;20226;-66
2022/01/22 01:00:59;;;;;;;3.27;2.57;;;;;;;-0.61;72.88;98145.53;5070819;28;20230;-72
2022/01/22 01:03:25;;;;;;;4.67;2.57;;;;;;;-0.69;73.05;98147.47;5067845;28;20628;-67
2022/01/22 01:05:52;;;;;;;2.87;2.30;;;;;;;-0.70;73.25;98143.16;5063629;28;20239;-66
2022/01/22 01:08:19;;;;;;;4.70;2.70;;;;;;;-0.69;72.23;98147.47;5061718;28;20203;-67
2022/01/22 01:10:48;;;;;;;2.67;2.43;;;;;;;-0.68;72.59;98150.91;5058320;28;20210;-71
2022/01/22 01:13:15;;;;;;;3.00;2.00;;;;;;;-0.74;72.66;98145.84;5066144;28;20239;-72
2022/01/22 01:15:54;;;;;;;3.63;1.77;;;;;;;-0.77;73.10;98141.59;5091313;28;20227;-73
2022/01/22 01:32:12;;;;;;;2.47;2.10;;;;;;;-0.82;71.56;98153.84;5090943;28;20209;-67
2022/01/22 01:34:41;;;;;;;2.13;2.00;;;;;;;-0.80;71.41;98146.88;5095636;28;20238;-68
2022/01/22 01:37:08;;;;;;;2.03;1.70;;;;;;;-0.80;72.17;98154.66;5098992;28;20273;-67
2022/01/22 01:39:38;;;;;;;2.73;1.80;;;;;;;-0.86;72.17;98147.03;5099162;28;20192;-70
2022/01/22 01:42:08;;;;;;;2.83;1.53;;;;;;;-0.87;71.70;98155.69;5098440;28;20186;-70
2022/01/22 01:44:35;;;;;;;3.10;2.00;;;;;;;-0.85;71.71;98159.09;5081656;28;20203;-72
2022/01/22 01:47:04;;;;;;;2.93;1.70;;;;;;;-0.83;71.46;98153.88;5078885;28;20273;-76
2022/01/22 01:49:31;;;;;;;2.83;1.73;;;;;;;-0.84;71.45;98159.94;5079073;28;20209;-75
2022/01/22 01:52:01;;;;;;;2.50;1.60;;;;;;;-0.86;72.03;98161.75;5088226;28;20230;-75
2022/01/22 01:54:35;;;;;;;3.00;2.10;;;;;;;-0.83;71.84;98169.47;5063995;28;20216;-76
2022/01/22 01:59:50;;;;;;;2.27;1.87;;;;;;;-0.92;73.21;98172.28;5065743;28;20613;-70
2022/01/22 02:02:17;;;;;;;4.40;1.87;;;;;;;-0.94;72.73;98169.72;5071984;28;20214;-69
2022/01/22 02:04:43;;;;;;;2.30;2.10;;;;;;;-0.96;72.45;98166.31;5057581;28;20528;-68
2022/01/22 02:07:10;;;;;;;2.80;1.80;;;;;;;-0.97;73.15;98159.41;5057811;28;20232;-69
2022/01/22 02:09:38;;;;;;;2.63;1.87;;;;;;;-0.95;72.63;98161.94;5059523;28;20219;-67
2022/01/22 02:12:12;;;;;;;3.93;2.20;;;;;;;-0.94;72.07;98159.31;5062838;28;21191;-69
2022/01/22 02:25:40;;;;;;;3.30;2.33;;;;;;;-0.92;73.23;98156.72;5075093;28;20220;-69
2022/01/22 02:28:07;;;;;;;2.77;2.17;;;;;;;-0.92;72.73;98146.31;5073778;28;20281;-67
2022/01/22 02:30:37;;;;;;;2.10;2.00;;;;;;;-0.90;72.64;98149.72;5075013;28;20658;-69
2022/01/22 02:33:16;;;;;;;3.40;1.97;;;;;;;-0.88;72.99;98148.78;5064175;28;20208;-73
2022/01/22 02:35:49;;;;;;;3.93;2.57;;;;;;;-0.88;72.57;98142.72;5073953;28;20245;-74
2022/01/22 02:38:21;;;;;;;2.67;2.00;;;;;;;-0.86;73.43;98141.84;5073312;28;20222;-68
2022/01/22 02:40:49;;;;;;;3.23;2.63;;;;;;;-0.86;73.46;98131.44;5069555;28;20198;-69
2022/01/22 02:43:17;;;;;;;3.37;2.17;;;;;;;-0.86;74.36;98133.19;5060940;28;20564;-74
2022/01/22 02:45:46;;;;;;;3.17;2.17;;;;;;;-0.85;75.70;98146.13;5074425;28;20233;-73
2022/01/22 02:48:13;;;;;;;5.10;2.13;;;;;;;-0.88;75.91;98142.72;5074620;28;20259;-70
2022/01/22 02:50:39;;;;;;;2.60;2.10;;;;;;;-0.92;75.09;98131.56;5074302;28;20625;-72
2022/01/22 02:53:07;;;;;;;2.80;2.43;;;;;;;-0.85;76.17;98138.31;5074314;28;20633;-76
2022/01/22 02:55:35;;;;;;;3.50;2.20;;;;;;;-0.84;76.47;98144.38;5068655;28;20241;-75
2022/01/22 02:58:04;;;;;;;2.43;2.23;;;;;;;-0.81;75.08;98155.53;5061978;28;20210;-75
2022/01/22 03:00:31;;;;;;;2.40;2.20;;;;;;;-0.73;74.60;98152.75;5074604;28;20224;-74
2022/01/22 03:02:58;;;;;;;3.37;2.30;;;;;;;-0.69;75.59;98151.81;5070833;28;20272;-76
2022/01/22 03:05:24;;;;;;;2.30;2.00;;;;;;;-0.67;75.31;98163.84;5061352;28;20196;-75
2022/01/22 03:07:53;;;;;;;3.63;2.43;;;;;;;-0.56;75.66;98166.19;5066929;28;20212;-73
2022/01/22 03:10:23;;;;;;;3.43;3.00;;;;;;;-0.44;74.90;98160.69;5065222;28;20199;-72
2022/01/22 03:15:58;;;;;;;3.00;2.80;;;;;;;-0.35;73.59;98167.38;5092104;27;20548;-73
2022/01/22 03:18:39;;;;;;;2.57;2.43;;;;;;;-0.28;74.18;98155.94;5091982;28;20205;-75
2022/01/22 03:21:13;;;;;;;2.97;2.43;;;;;;;-0.26;73.35;98155.03;5092417;28;20285;-72
2022/01/22 03:29:11;;;;;;;3.10;2.73;;;;;;;-0.13;74.04;98161.59;5114847;28;20243;-73
2022/01/22 03:31:41;;;;;;;3.87;3.07;;;;;;;-0.13;74.90;98161.59;5115307;28;20189;-73
2022/01/22 03:34:07;;;;;;;2.63;2.43;;;;;;;-0.15;74.97;98158.19;5097313;28;20293;-67
2022/01/22 03:36:35;;;;;;;4.53;3.23;;;;;;;-0.08;74.31;98167.53;5084511;28;20206;-73
2022/01/22 03:39:01;;;;;;;4.67;2.87;;;;;;;0.05;74.69;98165.44;5091952;28;20248;-70
2022/01/22 03:41:28;;;;;;;4.23;3.07;;;;;;;0.05;73.88;98170.66;5080880;28;20293;-67
2022/01/22 03:43:55;;;;;;;3.83;3.00;;;;;;;0.06;75.09;98169.75;5083074;28;20222;-67
2022/01/22 03:46:22;;;;;;;3.37;3.03;;;;;;;0.14;74.82;98165.22;5092017;28;20227;-69
2022/01/22 03:48:50;;;;;;;4.33;3.43;;;;;;;0.10;74.59;98173.13;5091836;28;20198;-69
2022/01/22 03:51:16;;;;;;;6.13;3.30;;;;;;;0.13;74.87;98165.22;5092068;28;20207;-70
2022/01/22 03:53:43;;;;;;;3.20;2.93;;;;;;;0.17;74.57;98174.66;5086449;28;20564;-68
2022/01/22 03:56:11;;;;;;;4.77;3.10;;;;;;;0.16;75.03;98167.75;5090469;28;20211;-67
2022/01/22 03:58:39;;;;;;;4.10;3.10;;;;;;;0.09;75.55;98167.06;5092431;28;20308;-77
2022/01/22 04:01:55;;;;;;;3.73;3.10;;;;;;;0.18;75.63;98160.78;5093083;28;20222;-72
2022/01/22 04:04:22;;;;;;;5.90;3.17;;;;;;;0.21;75.68;98168.50;5086089;28;20234;-69
2022/01/22 04:09:43;;;;;;;3.10;2.80;;;;;;;0.23;74.61;98159.75;5071407;28;20333;-73
2022/01/22 04:12:11;;;;;;;4.43;3.20;;;;;;;0.26;76.57;98169.19;5072349;28;20562;-74
2022/01/22 04:14:45;;;;;;;5.43;3.03;;;;;;;0.36;75.74;98162.81;5071174;28;20263;-68
2022/01/22 04:17:23;;;;;;;3.93;3.20;;;;;;;0.33;75.91;98155.13;5076872;28;20233;-68
2022/01/22 04:25:24;;;;;;;7.00;3.30;;;;;;;0.49;74.45;98156.41;5087752;28;20202;-67
2022/01/22 04:27:53;;;;;;;3.67;2.90;;;;;;;0.44;75.39;98155.66;5077787;28;20617;-68
2022/01/22 04:30:20;;;;;;;4.97;3.40;;;;;;;0.46;74.93;98146.91;5078128;28;20229;-68
2022/01/22 04:32:48;;;;;;;4.23;3.27;;;;;;;0.41;74.98;98155.75;5077790;28;20214;-68
2022/01/22 04:35:17;;;;;;;3.90;3.33;;;;;;;0.43;75.20;98156.56;5077493;28;20242;-68
2022/01/22 04:37:43;;;;;;;4.20;3.20;;;;;;;0.40;75.35;98151.44;5071717;28;20546;-69
2022/01/22 04:40:10;;;;;;;5.07;3.23;;;;;;;0.51;75.18;98154.59;5077643;28;20207;-68
2022/01/22 04:42:39;;;;;;;5.27;3.07;;;;;;;0.40;75.29;98159.25;5057201;28;20236;-68
2022/01/22 04:45:13;;;;;;;3.97;3.23;;;;;;;0.48;74.22;98155.53;5077739;28;20222;-69
2022/01/22 04:47:49;;;;;;;5.23;3.40;;;;;;;0.53;73.00;98152.81;5077445;28;20580;-70
2022/01/22 04:55:59;;;;;;;4.87;3.30;;;;;;;0.59;73.30;98155.22;5074803;28;20298;-70
2022/01/22 04:58:26;;;;;;;3.10;2.80;;;;;;;0.60;71.68;98151.72;5077685;28;20541;-69
2022/01/22 05:00:53;;;;;;;3.17;2.87;;;;;;;0.61;71.67;98150.81;5073443;28;20220;-69
2022/01/22 05:03:20;;;;;;;4.47;3.13;;;;;;;0.64;72.15;98161.13;5067802;28;20212;-68
2022/01/22 05:05:48;;;;;;;4.70;3.03;;;;;;;0.64;73.56;98162.91;5062364;28;20205;-68
2022/01/22 05:08:14;;;;;;;4.07;3.30;;;;;;;0.66;73.01;98164.56;5077978;28;20198;-68
2022/01/22 05:10:40;;;;;;;3.60;3.30;;;;;;;0.76;72.96;98165.97;5077015;28;20210;-69
2022/01/22 05:13:07;;;;;;;4.77;3.40;;;;;;;0.79;72.56;98165.03;5091668;28;20206;-68
2022/01/22 05:15:33;;;;;;;5.43;3.67;;;;;;;0.71;72.72;98154.00;5087586;28;20240;-68
2022/01/22 05:18:04;;;;;;;6.97;3.03;;;;;;;0.69;71.92;98150.59;5070780;28;20627;-69
2022/01/22 05:20:36;;;;;;;3.57;3.13;;;;;;;0.67;73.68;98148.03;5080063;28;20221;-70
2022/01/22 05:23:10;;;;;;;6.13;3.57;;;;;;;0.70;73.19;98155.75;5086385;28;20203;-67
2022/01/22 05:25:41;;;;;;;3.23;2.93;;;;;;;0.71;72.80;98156.63;5053702;28;20207;-69
2022/01/22 05:28:58;;;;;;;4.33;3.10;;;;;;;0.64;71.89;98150.72;5054609;28;20193;-69
2022/01/22 05:31:20;;;;;;;5.07;2.97;;;;;;;0.66;71.91;98156.75;5097091;28;20217;-70
2022/01/22 05:39:16;;;;;;;5.53;3.00;;;;;;;0.82;72.65;98160.56;5069394;28;20215;-68
2022/01/22 05:41:43;;;;;;;3.13;2.83;;;;;;;0.78;73.46;98166.78;5063876;28;20202;-68
2022/01/22 05:44:09;;;;;;;3.10;2.80;;;;;;;0.69;72.77;98168.81;5070209;28;20207;-68
2022/01/22 05:46:36;;;;;;;4.00;3.00;;;;;;;0.74;72.38;98172.13;5075361;28;20291;-67
2022/01/22 05:49:03;;;;;;;3.10;2.80;;;;;;;0.74;71.64;98173.00;5076613;28;20220;-67
2022/01/22 05:51:30;;;;;;;4.30;3.33;;;;;;;0.80;73.45;98174.56;5076960;28;20223;-69
2022/01/22 05:54:19;;;;;;;4.93;2.93;;;;;;;0.78;73.42;98169.38;5069486;28;20206;-69
2022/01/22 05:59:37;;;;;;;3.87;3.10;;;;;;;0.81;74.01;98179.72;5076443;28;20209;-69
2022/01/22 06:02:04;;;;;;;3.93;2.77;;;;;;;0.77;73.88;98178.13;5088311;28;20198;-68
2022/01/22 06:04:30;;;;;;;4.97;3.00;;;;;;;0.80;72.93;98178.00;5079351;28;20193;-69
2022/01/22 06:06:56;;;;;;;3.03;2.83;;;;;;;0.77;72.82;98178.13;5078823;28;20226;-68
2022/01/22 06:09:24;;;;;;;4.17;2.97;;;;;;;0.77;72.58;98177.25;5076290;28;20204;-68
2022/01/22 06:11:56;;;;;;;3.87;2.70;;;;;;;0.80;73.03;98172.81;5057676;28;20212;-68
2022/01/22 06:14:23;;;;;;;4.30;3.17;;;;;;;0.79;73.09;98173.69;5076490;28;20238;-69
2022/01/22 06:16:49;;;;;;;3.20;2.90;;;;;;;0.77;73.26;98180.72;5076964;28;20208;-68
2022/01/22 06:19:16;;;;;;;4.30;3.00;;;;;;;0.81;72.69;98178.88;5077336;28;20213;-69
2022/01/22 06:21:42;;;;;;;3.13;2.80;;;;;;;0.86;72.37;98183.03;5077623;28;20217;-67
2022/01/22 06:24:11;;;;;;;2.73;2.50;;;;;;;0.87;72.72;98179.53;5077969;28;20219;-67
2022/01/22 06:26:37;;;;;;;4.83;3.10;;;;;;;0.92;72.73;98190.66;5078326;28;20208;-69
2022/01/22 06:29:05;;;;;;;3.77;2.83;;;;;;;0.93;72.68;98187.16;5078948;28;20617;-68
2022/01/22 06:31:32;;;;;;;5.13;3.17;;;;;;;0.89;72.28;98182.94;5085064;28;20208;-67
2022/01/22 06:33:59;;;;;;;3.63;3.17;;;;;;;0.93;73.00;98189.75;5067159;28;20233;-67
2022/01/22 06:36:26;;;;;;;5.47;2.80;;;;;;;0.92;72.25;98182.84;5067748;28;20282;-69
2022/01/22 06:38:56;;;;;;;5.50;2.83;;;;;;;0.85;72.09;98189.13;5068804;28;20216;-70
2022/01/22 06:44:08;;;;;;;3.90;3.47;;;;;;;0.88;72.80;98207.28;5056131;28;20217;-68
2022/01/22 06:46:35;;;;;;;5.60;3.40;;;;;;;0.95;71.61;98208.81;5073986;28;20205;-68
2022/01/22 06:49:01;;;;;;;3.83;3.07;;;;;;;0.97;71.39;98214.81;5075735;28;20238;-68
2022/01/22 06:51:28;;;;;;;3.97;2.70;;;;;;;0.91;72.12;98228.03;5075696;28;20215;-69
2022/01/22 06:53:55;;;;;;;3.30;3.00;;;;;;;0.96;71.50;98226.13;5071178;28;20216;-66
2022/01/22 06:56:22;;;;;;;3.43;2.80;;;;;;;0.90;71.37;98231.53;5073640;28;20543;-67
2022/01/22 06:58:49;;;;;;;5.10;2.60;;;;;;;1.05;71.87;98224.16;5077335;28;20207;-67
2022/01/22 07:01:16;;;;;;;2.77;2.57;;;;;;;1.06;70.90;98231.06;5076891;28;20275;-67
2022/01/22 07:03:43;;;;;;;3.40;2.90;;;;;;;1.04;69.59;98227.66;5060438;28;20620;-67
2022/01/22 07:06:10;;;;;;;2.90;2.60;;;;;;;0.99;71.14;98235.63;5063414;28;20626;-68
2022/01/22 07:08:36;;;;;;;3.40;2.80;;;;;;;0.97;72.36;98232.19;5062633;28;20226;-69
2022/01/22 07:11:03;;;;;;;3.83;2.70;;;;;;;1.03;71.21;98233.78;5056274;28;20206;-69
2022/01/22 07:13:29;;;;;;;2.83;2.57;;;;;;;0.94;71.59;98243.56;5056404;28;20221;-67
2022/01/22 07:15:56;;;;;;;4.00;2.73;;;;;;;1.00;71.71;98240.75;5067345;28;20229;-69
2022/01/22 07:18:23;;;;;;;3.00;2.73;;;;;;;1.02;71.55;98239.88;5057052;28;20216;-68
2022/01/22 07:20:51;;;;;;;3.23;2.90;;;;;;;1.05;72.35;98250.19;5078514;28;20211;-69
2022/01/22 07:23:30;;;;;;;2.70;2.50;;;;;;;1.06;71.10;98254.53;5075970;28;20671;-67
2022/01/22 07:25:57;;;;;;;3.43;3.13;;;;;;;1.05;71.53;98256.28;5075375;28;20270;-69
2022/01/22 07:28:23;;;;;;;3.63;3.13;;;;;;;1.10;71.68;98250.94;5074965;28;20513;-69
2022/01/22 07:30:50;;;;;;;4.03;2.73;;;;;;;1.10;71.23;98253.53;5075258;28;20304;-69
2022/01/22 07:33:17;;;;;;;3.83;2.67;;;;;;;1.10;71.21;98248.31;5075502;28;20517;-68
2022/01/22 07:35:45;;;;;;;3.03;2.77;;;;;;;1.06;70.62;98257.13;5071412;28;20225;-67
2022/01/22 07:38:12;;;;;;;4.20;3.07;;;;;;;1.08;69.54;98247.50;5059675;28;20218;-70
2022/01/22 07:40:38;;;;;;;3.23;2.80;;;;;;;1.12;69.85;98249.97;5075451;28;20200;-70
2022/01/22 07:43:05;;;;;;;8.40;2.90;;;;;;;1.14;69.83;98239.50;5072718;28;20200;-68
2022/01/22 07:45:32;;;;;;;3.00;2.70;;;;;;;1.20;70.10;98248.00;5076127;28;20203;-67
2022/01/22 07:47:58;;;;;;;3.73;3.43;;;;;;;1.17;70.77;98244.63;5075219;28;20230;-69
2022/01/22 07:50:27;;;;;;;3.77;2.83;;;;;;;1.14;69.58;98239.50;5075631;28;20209;-70
2022/01/22 07:52:55;;;;;;;2.93;2.63;;;;;;;1.14;69.57;98250.78;5075274;28;20202;-69
2022/01/22 07:55:22;;;;;;;3.97;3.20;;;;;;;1.15;70.41;98244.66;5067502;28;20221;-68
2022/01/22 07:57:48;;;;;;;3.80;3.13;;;;;;;1.23;69.30;98247.03;5075172;28;20220;-69
2022/01/22 08:00:16;;;;;;;5.67;3.20;;;;;;;1.31;70.36;98252.88;5075245;28;20522;-67
2022/01/22 08:02:43;;;;;;;3.33;2.67;;;;;;;1.34;69.43;98253.63;5077815;28;20208;-68
2022/01/22 08:05:10;;;;;;;3.00;2.73;;;;;;;1.32;70.78;98246.75;5059181;28;20208;-68
2022/01/22 08:07:38;;;;;;;2.97;2.77;;;;;;;1.33;70.21;98245.84;5076528;28;20213;-68
2022/01/22 08:10:10;;;;;;;2.97;2.63;;;;;;;1.37;69.73;98239.66;5059273;28;20648;-69
2022/01/22 08:12:37;;;;;;;4.27;2.80;;;;;;;1.40;69.58;98231.72;5065535;28;20204;-69
2022/01/22 08:15:04;;;;;;;4.47;2.90;;;;;;;1.41;69.04;98234.31;5080067;28;20256;-67
2022/01/22 08:17:31;;;;;;;4.27;2.53;;;;;;;1.42;68.99;98235.13;5099192;28;20189;-67
2022/01/22 08:19:57;;;;;;;4.33;2.60;;;;;;;1.48;68.89;98240.16;5101442;28;20215;-68
2022/01/22 08:22:24;;;;;;;4.63;2.73;;;;;;;1.55;68.02;98246.91;5101117;28;20213;-67
2022/01/22 08:24:52;;;;;;;2.87;2.53;;;;;;;1.56;68.58;98250.38;5101521;28;20186;-68
2022/01/22 08:27:33;;;;;;;3.30;2.87;;;;;;;1.58;67.73;98254.63;5101616;28;20203;-67
2022/01/22 08:30:00;;;;;;;8.20;3.27;;;;;;;1.55;66.35;98257.31;5091860;28;20495;-68
2022/01/22 08:32:54;;;;;;;3.30;2.80;;;;;;;1.55;68.64;98256.47;5079228;28;20214;-70
2022/01/22 08:38:02;;;;;;;3.47;2.90;;;;;;;1.52;68.18;98257.44;5063600;28;20274;-68
2022/01/22 08:40:29;;;;;;;4.37;2.10;;;;;;;1.52;66.03;98258.25;5076344;28;20224;-68
2022/01/22 08:42:57;;;;;;;3.27;2.50;;;;;;;1.57;66.15;98260.72;5061254;28;20209;-68
2022/01/22 08:45:24;;;;;;;3.53;2.87;;;;;;;1.62;67.39;98253.63;5079091;28;20237;-66
2022/01/22 08:47:50;;;;;;;3.20;2.43;;;;;;;1.72;67.84;98254.16;5079351;28;20204;-69
2022/01/22 08:50:17;;;;;;;4.30;2.93;;;;;;;1.81;67.10;98253.84;5082099;28;20219;-67
2022/01/22 08:52:43;;;;;;;3.73;2.87;;;;;;;1.83;67.11;98252.91;5081692;28;20210;-69
2022/01/22 08:55:10;;;;;;;3.20;2.90;;;;;;;1.88;66.33;98245.78;5071128;28;20210;-66
2022/01/22 08:57:37;;;;;;;4.13;2.87;;;;;;;1.98;66.09;98241.13;5078610;28;20208;-66
2022/01/22 09:00:07;;;;;;;4.20;3.00;;;;;;;2.02;64.21;98236.66;5078522;28;20640;-69
2022/01/22 09:02:35;;;;;;;4.40;3.00;;;;;;;2.08;66.33;98244.28;5073733;28;20222;-68
2022/01/22 09:05:01;;;;;;;3.10;2.80;;;;;;;2.10;65.03;98250.28;5055718;28;20258;-68
2022/01/22 09:07:28;;;;;;;3.27;2.63;;;;;;;2.20;65.94;98251.66;5077475;28;20213;-68
2022/01/22 09:09:54;;;;;;;5.87;2.90;;;;;;;2.23;65.15;98254.19;5077726;28;20224;-68
2022/01/22 09:12:21;;;;;;;3.60;3.00;;;;;;;2.29;65.41;98251.38;5058933;28;20206;-68
2022/01/22 09:14:47;;;;;;;2.70;2.50;;;;;;;2.40;65.10;98263.16;5069961;28;20241;-66
2022/01/22 09:17:15;;;;;;;5.33;2.80;;;;;;;2.49;63.82;98269.78;5080275;28;20230;-69
2022/01/22 09:19:46;;;;;;;21.00;5.23;;;;;;;2.37;63.84;98276.28;5077560;28;20262;-69
2022/01/22 09:22:12;;;;;;;5.47;3.03;;;;;;;2.35;61.77;98285.06;5078111;28;20210;-67
2022/01/22 09:24:40;;;;;;;5.50;2.83;;;;;;;2.38;61.40;98287.56;5077835;28;20221;-69
2022/01/22 09:27:07;;;;;;;5.20;2.40;;;;;;;2.51;63.62;98283.66;5064843;28;20211;-69
2022/01/22 09:29:36;;;;;;;3.87;2.97;;;;;;;2.50;63.01;98287.16;5078260;28;20622;-68
2022/01/22 09:32:03;;;;;;;3.97;2.70;;;;;;;2.59;63.34;98286.84;5078152;28;20213;-69
2022/01/22 09:34:31;;;;;;;5.33;2.57;;;;;;;2.67;61.18;98295.25;5078254;28;20210;-69
2022/01/22 09:36:58;;;;;;;2.63;2.47;;;;;;;2.73;62.14;98289.81;5075903;28;20224;-68
2022/01/22 09:39:24;;;;;;;3.17;2.77;;;;;;;2.84;60.79;98284.19;5099854;28;20201;-68
2022/01/22 09:41:51;;;;;;;4.17;2.73;;;;;;;2.99;60.16;98279.25;5099699;28;20644;-67
2022/01/22 09:44:17;;;;;;;12.90;4.03;;;;;;;2.96;59.76;98286.38;5072670;28;20207;-69
2022/01/22 09:46:47;;;;;;;4.47;2.77;;;;;;;3.06;60.36;98279.88;5051474;28;20213;-67
2022/01/22 09:49:13;;;;;;;5.20;2.63;;;;;;;3.10;60.18;98283.25;5077261;28;20217;-66
2022/01/22 09:51:41;;;;;;;3.67;2.83;;;;;;;3.07;58.27;98279.00;5077116;28;20630;-68
2022/01/22 09:54:10;;;;;;;5.03;2.67;;;;;;;3.20;59.88;98289.81;5069480;28;20554;-69
2022/01/22 09:56:36;;;;;;;8.17;3.03;;;;;;;3.26;59.89;98284.38;5069266;28;20327;-67
2022/01/22 09:59:03;;;;;;;5.83;3.17;;;;;;;3.29;58.78;98299.94;5071290;28;20623;-68
2022/01/22 10:01:33;;;;;;;5.63;3.00;;;;;;;3.25;58.83;98293.13;5074880;28;20551;-70
2022/01/22 10:04:01;;;;;;;4.93;3.17;;;;;;;3.45;58.88;98293.22;5062710;28;20254;-69
2022/01/22 10:06:29;;;;;;;3.77;3.43;;;;;;;3.50;61.23;98293.91;5067104;28;20234;-68
2022/01/22 10:09:09;;;;;;;9.33;3.77;;;;;;;3.75;60.78;98288.56;5063131;28;20217;-66
2022/01/22 10:11:36;;;;;;;7.17;4.03;;;;;;;3.88;59.92;98285.38;5057294;28;20221;-69
2022/01/22 10:14:03;;;;;;;5.53;3.20;;;;;;;4.16;57.70;98284.25;5076004;28;20242;-68
2022/01/22 10:16:31;;;;;;;6.43;3.40;;;;;;;4.17;57.79;98285.94;5076923;28;20234;-69
2022/01/22 10:19:15;;;;;;;3.37;3.07;;;;;;;4.33;58.13;98280.00;5076356;28;20311;-67
2022/01/22 10:21:43;;;;;;;3.23;2.93;;;;;;;4.39;55.64;98284.13;5076277;28;20206;-69
2022/01/22 10:24:27;;;;;;;5.00;3.33;;;;;;;4.45;55.94;98271.63;5075748;28;20225;-68
2022/01/22 10:27:26;;;;;;;3.60;3.30;;;;;;;4.27;57.09;98276.78;5076253;28;20226;-67
2022/01/22 10:29:55;;;;;;;4.50;3.63;;;;;;;4.33;55.91;98272.13;5076098;28;20202;-70
2022/01/22 10:32:31;;;;;;;4.63;3.00;;;;;;;4.27;56.67;98275.03;5075958;28;20203;-67
2022/01/22 10:35:08;;;;;;;5.63;3.40;;;;;;;4.46;55.12;98273.31;5075548;28;20248;-68
2022/01/22 10:37:35;;;;;;;4.20;2.80;;;;;;;4.51;55.45;98275.75;5056364;28;20532;-67
2022/01/22 10:40:20;;;;;;;4.77;3.43;;;;;;;4.29;54.36;98274.94;5074516;28;20210;-68
2022/01/22 10:42:47;;;;;;;4.80;2.93;;;;;;;4.58;53.63;98278.94;5065776;28;20206;-66
2022/01/22 10:45:22;;;;;;;4.23;2.90;;;;;;;5.46;51.90;98278.41;5076166;28;20206;-67
2022/01/22 10:47:48;;;;;;;3.60;3.03;;;;;;;6.84;49.65;98269.75;5075819;28;20527;-70
2022/01/22 10:50:19;;;;;;;3.60;3.23;;;;;;;8.21;46.95;98267.41;5075580;28;20202;-68
2022/01/22 10:52:50;;;;;;;3.53;2.90;;;;;;;8.72;43.02;98266.16;5075791;28;20229;-66
2022/01/22 10:55:17;;;;;;;2.83;2.57;;;;;;;9.26;42.66;98264.56;5074861;28;20225;-68
2022/01/22 10:58:04;;;;;;;3.57;3.00;;;;;;;9.80;40.52;98261.09;5076099;28;20315;-69
2022/01/22 11:00:31;;;;;;;4.43;2.80;;;;;;;10.63;39.70;98262.63;5075625;28;20206;-75
2022/01/22 11:02:57;;;;;;;5.32;2.90;;;;;;;10.06;38.71;98263.84;5056005;28;20213;-71
2022/01/22 11:05:34;;;;;;;3.13;2.28;;;;;;;9.88;38.08;98264.06;5061862;28;20203;-71
2022/01/22 11:08:08;;;;;;;2.30;2.10;;;;;;;10.36;36.31;98256.56;5068762;28;20285;-71
2022/01/22 11:10:35;;;;;;;4.53;2.67;;;;;;;10.73;36.27;98249.63;5053458;28;20891;-71
2022/01/22 11:13:03;;;;;;;2.83;2.63;;;;;;;9.90;37.38;98254.25;5055403;28;20245;-70
2022/01/22 11:15:29;;;;;;;2.10;1.90;;;;;;;9.00;39.07;98242.41;5074702;28;20308;-70
2022/01/22 11:17:56;;;;;;;3.45;2.50;;;;;;;8.64;39.56;98240.25;5074435;28;20226;-71
2022/01/22 11:20:23;;;;;;;2.87;1.90;;;;;;;8.60;38.76;98225.56;5057994;28;20214;-70
2022/01/22 11:22:52;;;;;;;2.37;2.17;;;;;;;8.64;40.39;98229.72;5053858;28;20211;-71
2022/01/22 11:25:19;;;;;;;1.90;1.80;;;;;;;8.14;41.29;98229.19;5071719;28;20218;-70
2022/01/22 11:27:46;;;;;;;2.33;2.10;;;;;;;7.66;43.46;98227.56;5074517;28;20618;-69
2022/01/22 11:30:17;;;;;;;3.80;2.93;;;;;;;7.39;44.13;98235.22;5057147;28;20206;-74
2022/01/22 11:32:45;;;;;;;3.07;2.60;;;;;;;7.70;44.08;98243.09;5067197;28;20206;-72
2022/01/22 11:35:12;;;;;;;2.40;2.20;;;;;;;7.70;44.57;98240.47;5079276;28;20641;-71
2022/01/22 11:37:43;;;;;;;3.40;2.60;;;;;;;7.57;43.11;98239.47;5098762;28;20226;-70
2022/01/22 11:40:11;;;;;;;3.57;2.40;;;;;;;7.29;44.06;98241.94;5102081;28;20209;-71
2022/01/22 11:42:55;;;;;;;3.70;2.50;;;;;;;7.37;42.55;98237.06;5068975;28;20260;-72
2022/01/22 11:45:29;;;;;;;4.50;2.70;;;;;;;7.70;43.81;98227.31;5067405;28;20285;-71
2022/01/22 11:48:10;;;;;;;5.40;2.77;;;;;;;7.67;43.11;98235.38;5078476;28;20272;-71
2022/01/22 11:50:37;;;;;;;3.10;2.40;;;;;;;7.41;42.17;98233.34;5078504;28;20210;-71
2022/01/22 11:53:22;;;;;;;4.03;2.30;;;;;;;7.25;46.07;98240.41;5078435;28;20206;-71
2022/01/22 11:56:13;;;;;;;3.10;2.40;;;;;;;6.97;44.40;98231.38;5076224;28;20195;-70
2022/01/22 11:59:13;;;;;;;3.27;2.13;;;;;;;7.21;45.10;98236.22;5071321;28;20246;-70
2022/01/22 12:01:52;;;;;;;4.13;2.60;;;;;;;7.80;43.00;98219.72;5050651;28;20628;-76
2022/01/22 12:04:20;;;;;;;3.43;2.47;;;;;;;7.76;42.20;98208.50;5073554;28;20203;-77
2022/01/22 12:07:12;;;;;;;5.77;2.40;;;;;;;8.14;41.82;98208.09;5072505;28;20207;-80
2022/01/22 12:09:43;;;;;;;5.73;4.07;;;;;;;8.45;42.20;98184.28;5060039;28;20210;-83
2022/01/22 12:15:09;;;;;;;2.73;2.30;;;;;;;8.25;41.79;98176.69;5074441;28;20238;-79
2022/01/22 12:18:07;;;;;;;3.53;2.60;;;;;;;8.06;42.65;98176.06;5071762;28;20227;-81
2022/01/22 12:23:53;;;;;;;3.97;2.50;;;;;;;8.11;44.00;98172.25;5076918;28;20209;-77
2022/01/22 12:27:01;;;;;;;3.17;2.43;;;;;;;7.94;45.72;98178.50;5079419;28;20230;-75
2022/01/22 12:29:39;;;;;;;3.17;2.63;;;;;;;8.13;45.37;98162.44;5073471;28;20622;-69
2022/01/22 12:32:20;;;;;;;2.50;2.30;;;;;;;8.13;44.10;98169.50;5052079;28;20517;-69
2022/01/22 12:35:14;;;;;;;3.83;2.60;;;;;;;8.12;45.88;98170.44;5079900;28;20522;-69
2022/01/22 12:37:46;;;;;;;3.13;2.53;;;;;;;8.18;44.85;98162.19;5064316;28;20222;-70
2022/01/22 12:40:13;;;;;;;2.37;2.17;;;;;;;8.00;45.73;98167.63;5047723;28;20238;-69
2022/01/22 12:42:59;;;;;;;3.13;2.37;;;;;;;8.15;46.28;98154.47;5058258;28;20207;-69
2022/01/22 12:45:26;;;;;;;3.90;2.60;;;;;;;8.68;45.04;98160.00;5077907;28;20203;-76
2022/01/22 12:47:54;;;;;;;2.30;2.10;;;;;;;8.64;44.66;98158.50;5076927;28;20210;-76
2022/01/22 12:50:29;;;;;;;2.33;2.03;;;;;;;8.43;44.79;98159.81;5078510;28;20592;-77
2022/01/22 12:53:02;;;;;;;3.10;2.23;;;;;;;8.82;45.02;98148.59;5073799;28;20202;-77
2022/01/22 12:55:49;;;;;;;3.47;2.30;;;;;;;8.72;45.01;98143.03;5071732;28;20206;-76
2022/01/22 12:58:21;;;;;;;2.53;2.27;;;;;;;8.44;45.49;98143.88;5078872;28;20254;-77
2022/01/22 13:00:47;;;;;;;2.27;2.07;;;;;;;8.87;44.79;98144.72;5066009;28;20234;-68
2022/01/22 13:03:13;;;;;;;3.07;2.70;;;;;;;9.00;44.82;98148.28;5072617;28;20207;-69